Time;durP1;ratioP1;P1;durP2;ratioP2;P2;SDS_P1;SDS_P2;PMS_P1;PMS_P2;Temp;Humidity;BMP_temperature;BMP_pressure;BME280_temperature;BME280_humidity;BME280_pressure;Samples;Min_cycle;Max_cycle;Signal;HPM_P1;HPM_P2
2023/06/24 00:02:10;;;;;;;;;;;;;;;21.50;60.19;101219.31;7367726;19;19919;-58
2023/06/24 00:04:35;;;;;;;;;;;;;;;21.48;60.51;101225.66;7366351;19;19907;-58
2023/06/24 00:07:00;;;;;;;;;;;;;;;21.46;60.01;101231.09;7358969;19;19923;-58
2023/06/24 00:09:27;;;;;;;;;;;;;;;21.45;60.51;101221.41;7354021;19;20346;-58
2023/06/24 00:11:53;;;;;;;;;;;;;;;21.44;60.03;101229.44;7357067;19;20241;-57
2023/06/24 00:14:18;;;;;;;;;;;;;;;21.43;60.12;101239.22;7353494;19;19955;-58
2023/06/24 00:16:43;;;;;;;;;;;;;;;21.41;60.47;101235.81;7355362;19;19922;-58
2023/06/24 00:19:08;;;;;;;;;;;;;;;21.40;60.52;101239.44;7360261;19;20340;-58
2023/06/24 00:21:33;;;;;;;;;;;;;;;21.39;60.51;101237.72;7351941;19;20300;-58
2023/06/24 00:24:04;;;;;;;;;;;;;;;21.39;60.55;101243.03;7359274;19;19919;-58
2023/06/24 00:26:29;;;;;;;;;;;;;;;21.37;60.31;101238.75;7349142;19;20545;-58
2023/06/24 00:28:54;;;;;;;;;;;;;;;21.37;60.25;101246.72;7357362;19;19978;-58
2023/06/24 00:31:20;;;;;;;;;;;;;;;21.35;60.47;101244.16;7354641;19;20393;-58
2023/06/24 00:33:45;;;;;;;;;;;;;;;21.34;60.45;101239.78;7335509;19;19911;-58
2023/06/24 00:36:11;;;;;;;;;;;;;;;21.32;60.37;101239.00;7350849;19;19998;-58
2023/06/24 00:38:37;;;;;;;;;;;;;;;21.31;60.36;101245.28;7355481;19;20266;-58
2023/06/24 00:41:02;;;;;;;;;;;;;;;21.30;60.39;101243.56;7352998;19;19918;-57
2023/06/24 00:43:29;;;;;;;;;;;;;;;21.28;60.54;101250.72;7356356;19;19915;-57
2023/06/24 00:45:55;;;;;;;;;;;;;;;21.27;60.62;101254.34;7351705;19;20336;-57
2023/06/24 00:48:21;;;;;;;;;;;;;;;21.26;60.55;101242.00;7357259;19;19930;-58
2023/06/24 00:50:47;;;;;;;;;;;;;;;21.24;60.56;101249.22;7348920;19;19923;-58
2023/06/24 00:53:12;;;;;;;;;;;;;;;21.23;60.36;101251.00;7353728;19;19922;-58
2023/06/24 00:55:37;;;;;;;;;;;;;;;21.22;60.64;101251.09;7351767;19;19998;-57
2023/06/24 00:58:03;;;;;;;;;;;;;;;21.21;60.26;101249.38;7352645;19;19915;-58
2023/06/24 01:00:29;;;;;;;;;;;;;;;21.21;60.57;101244.06;7356323;19;19922;-58
2023/06/24 01:02:55;;;;;;;;;;;;;;;21.20;60.41;101247.69;7351064;19;19922;-58
2023/06/24 01:05:23;;;;;;;;;;;;;;;21.18;60.47;101238.94;7352566;19;19940;-58
2023/06/24 01:07:54;;;;;;;;;;;;;;;21.18;60.44;101244.25;7352059;19;19953;-59
2023/06/24 01:10:20;;;;;;;;;;;;;;;21.15;60.69;101249.75;7356267;19;19927;-58
2023/06/24 01:12:45;;;;;;;;;;;;;;;21.15;60.52;101255.06;7348221;19;20516;-58
2023/06/24 01:15:11;;;;;;;;;;;;;;;21.14;60.21;101248.03;7351072;19;20710;-58
2023/06/24 01:17:44;;;;;;;;;;;;;;;21.14;60.62;101250.69;7354270;19;19915;-57
2023/06/24 01:20:27;;;;;;;;;;;;;;;21.13;60.35;101251.63;7349448;19;20351;-58
2023/06/24 01:22:58;;;;;;;;;;;;;;;21.12;60.57;101252.56;7355632;19;20594;-58
2023/06/24 01:25:24;;;;;;;;;;;;;;;21.10;60.62;101244.69;7352131;19;20437;-58
2023/06/24 01:28:00;;;;;;;;;;;;;;;21.09;60.64;101250.13;7356658;19;19919;-58
2023/06/24 01:30:28;;;;;;;;;;;;;;;21.09;60.61;101253.63;7351963;19;20532;-57
2023/06/24 01:32:59;;;;;;;;;;;;;;;21.09;60.43;101244.81;7355185;19;19967;-58
2023/06/24 01:35:28;;;;;;;;;;;;;;;21.07;60.21;101259.94;7352215;19;19919;-58
2023/06/24 01:37:55;;;;;;;;;;;;;;;21.06;60.28;101252.94;7355011;19;20014;-59
2023/06/24 01:40:46;;;;;;;;;;;;;;;21.06;60.04;101252.94;7353829;19;20699;-59
2023/06/24 01:43:13;;;;;;;;;;;;;;;21.05;60.60;101240.59;7253603;19;2004407;-58
2023/06/24 01:45:42;;;;;;;;;;;;;;;21.04;60.19;101244.22;7349209;19;19930;-58
2023/06/24 01:48:11;;;;;;;;;;;;;;;21.03;60.47;101240.66;7351933;19;20333;-58
2023/06/24 01:50:37;;;;;;;;;;;;;;;21.01;60.35;101228.44;7353621;19;20009;-59
2023/06/24 01:53:07;;;;;;;;;;;;;;;20.99;60.53;101229.41;7345903;19;19915;-58
2023/06/24 01:55:33;;;;;;;;;;;;;;;20.98;60.06;101225.03;7351613;19;19914;-58
2023/06/24 01:57:59;;;;;;;;;;;;;;;20.96;60.65;101224.25;7350661;19;19956;-60
2023/06/24 02:00:26;;;;;;;;;;;;;;;20.96;60.76;101232.22;7351244;19;19978;-58
2023/06/24 02:02:51;;;;;;;;;;;;;;;20.94;60.43;101242.06;7352223;19;19949;-58
2023/06/24 02:05:17;;;;;;;;;;;;;;;20.93;60.88;101235.06;7347157;19;19979;-58
2023/06/24 02:07:43;;;;;;;;;;;;;;;20.93;60.46;101239.50;7354691;19;20451;-58
2023/06/24 02:10:08;;;;;;;;;;;;;;;20.91;60.89;101221.00;7348772;19;20339;-57
2023/06/24 02:12:34;;;;;;;;;;;;;;;20.90;60.64;101229.91;7351418;19;19911;-58
2023/06/24 02:15:01;;;;;;;;;;;;;;;20.89;60.51;101236.19;7351003;19;20398;-58
2023/06/24 02:17:29;;;;;;;;;;;;;;;20.89;60.59;101227.34;7353826;19;19952;-59
2023/06/24 02:19:55;;;;;;;;;;;;;;;20.88;60.73;101226.50;7354839;19;20518;-58
2023/06/24 02:22:21;;;;;;;;;;;;;;;20.87;60.65;101240.69;7357759;19;19961;-57
2023/06/24 02:24:47;;;;;;;;;;;;;;;20.86;60.43;101239.00;7356992;19;19923;-58
2023/06/24 02:27:13;;;;;;;;;;;;;;;20.86;60.49;101233.69;7353874;19;19957;-58
2023/06/24 02:29:39;;;;;;;;;;;;;;;20.85;60.57;101231.97;7357815;19;20359;-58
2023/06/24 02:32:05;;;;;;;;;;;;;;;20.83;60.84;101225.88;7359701;19;19947;-57
2023/06/24 02:34:30;;;;;;;;;;;;;;;20.84;60.44;101235.59;7357186;19;19923;-57
2023/06/24 02:36:56;;;;;;;;;;;;;;;20.84;60.61;101232.06;7356615;19;19915;-58
2023/06/24 02:39:22;;;;;;;;;;;;;;;20.82;60.87;101229.50;7358834;19;19939;-58
2023/06/24 02:41:49;;;;;;;;;;;;;;;20.82;60.87;101224.19;7352648;19;19949;-57
2023/06/24 02:44:15;;;;;;;;;;;;;;;20.81;60.65;101217.16;7356766;19;19919;-58
2023/06/24 02:46:41;;;;;;;;;;;;;;;20.82;60.95;101218.88;7358332;19;20030;-58
2023/06/24 02:49:07;;;;;;;;;;;;;;;20.82;60.54;101210.91;7357042;19;19949;-57
2023/06/24 02:51:34;;;;;;;;;;;;;;;20.81;61.01;101217.16;7354707;19;19915;-58
2023/06/24 02:54:00;;;;;;;;;;;;;;;20.83;60.70;101217.06;7353147;19;19915;-57
2023/06/24 02:56:27;;;;;;;;;;;;;;;20.81;60.68;101213.66;7359542;19;19951;-58
2023/06/24 02:58:53;;;;;;;;;;;;;;;20.80;60.67;101212.81;7352547;19;19944;-57
2023/06/24 03:01:24;;;;;;;;;;;;;;;20.80;60.65;101218.13;7356826;19;20637;-58
2023/06/24 03:03:50;;;;;;;;;;;;;;;20.79;60.94;101221.72;7354697;19;19919;-58
2023/06/24 03:06:17;;;;;;;;;;;;;;;20.80;61.12;101223.44;7358135;19;19967;-58
2023/06/24 03:08:42;;;;;;;;;;;;;;;20.80;60.82;101218.13;7358131;19;20352;-58
2023/06/24 03:11:07;;;;;;;;;;;;;;;20.81;60.77;101217.16;7353724;19;19919;-57
2023/06/24 03:13:33;;;;;;;;;;;;;;;20.84;61.25;101221.47;7354782;19;19919;-58
2023/06/24 03:15:58;;;;;;;;;;;;;;;20.83;61.05;101212.63;7358437;19;20581;-58
2023/06/24 03:18:23;;;;;;;;;;;;;;;20.85;61.14;101215.19;7332032;19;20029;-58
2023/06/24 03:20:49;;;;;;;;;;;;;;;20.87;60.78;101214.16;7353709;19;20026;-58
2023/06/24 03:23:14;;;;;;;;;;;;;;;20.89;61.21;101217.59;7354599;19;19919;-58
2023/06/24 03:25:39;;;;;;;;;;;;;;;20.91;60.75;101215.69;7352028;19;19915;-58
2023/06/24 03:28:07;;;;;;;;;;;;;;;20.93;60.87;101219.13;7356844;19;20428;-59
2023/06/24 03:30:32;;;;;;;;;;;;;;;20.95;61.17;101217.22;7359056;19;19930;-59
2023/06/24 03:32:57;;;;;;;;;;;;;;;20.98;61.10;101222.38;7356320;19;20542;-58
2023/06/24 03:35:23;;;;;;;;;;;;;;;21.00;60.77;101214.31;7358457;19;19930;-58
2023/06/24 03:37:52;;;;;;;;;;;;;;;21.02;61.09;101214.22;7353915;19;24400;-57
2023/06/24 03:40:17;;;;;;;;;;;;;;;21.05;61.01;101216.72;7357264;19;20436;-58
2023/06/24 03:42:42;;;;;;;;;;;;;;;21.06;60.69;101229.03;7348775;19;19918;-58
2023/06/24 03:45:08;;;;;;;;;;;;;;;21.08;61.18;101227.97;7357612;19;20011;-58
2023/06/24 03:47:33;;;;;;;;;;;;;;;21.04;60.74;101215.00;7352567;19;20336;-58
2023/06/24 03:49:58;;;;;;;;;;;;;;;21.11;61.04;101230.47;7358282;19;19931;-58
2023/06/24 03:52:24;;;;;;;;;;;;;;;21.14;60.85;101237.41;7356456;19;19918;-58
2023/06/24 03:54:50;;;;;;;;;;;;;;;21.15;60.64;101239.13;7356666;19;19953;-58
2023/06/24 03:57:15;;;;;;;;;;;;;;;21.17;60.96;101239.88;7354983;19;19926;-58
2023/06/24 03:59:41;;;;;;;;;;;;;;;21.19;61.22;101245.97;7356932;19;20015;-58
2023/06/24 04:02:09;;;;;;;;;;;;;;;21.20;60.81;101242.38;7355940;19;19915;-57
2023/06/24 04:04:37;;;;;;;;;;;;;;;21.22;60.62;101251.09;7355137;19;20323;-58
2023/06/24 04:07:02;;;;;;;;;;;;;;;21.24;61.22;101233.28;7355509;19;19955;-58
2023/06/24 04:09:29;;;;;;;;;;;;;;;21.25;60.98;101229.66;7355304;19;19918;-59
2023/06/24 04:11:54;;;;;;;;;;;;;;;21.28;60.93;101249.88;7356817;19;20341;-58
2023/06/24 04:14:19;;;;;;;;;;;;;;;21.29;61.02;101236.53;7355298;19;19923;-58
2023/06/24 04:16:44;;;;;;;;;;;;;;;21.31;61.22;101234.66;7356610;19;20257;-58
2023/06/24 04:19:10;;;;;;;;;;;;;;;21.33;61.18;101238.06;7354408;19;20010;-58
2023/06/24 04:21:37;;;;;;;;;;;;;;;21.34;61.19;101241.56;7356411;19;20257;-57
2023/06/24 04:24:02;;;;;;;;;;;;;;;21.35;60.88;101241.50;7352410;19;19918;-58
2023/06/24 04:26:27;;;;;;;;;;;;;;;21.37;61.41;101250.22;7354539;19;19923;-57
2023/06/24 04:28:53;;;;;;;;;;;;;;;21.39;61.00;101244.81;7355409;19;20404;-58
2023/06/24 04:31:18;;;;;;;;;;;;;;;21.39;61.52;101248.34;7355826;19;20002;-58
2023/06/24 04:33:43;;;;;;;;;;;;;;;21.41;60.98;101242.94;7357058;19;19919;-58
2023/06/24 04:36:09;;;;;;;;;;;;;;;21.43;60.90;101241.03;7357115;19;20381;-58
2023/06/24 04:38:34;;;;;;;;;;;;;;;21.44;60.96;101243.63;7353922;19;19982;-58
2023/06/24 04:40:59;;;;;;;;;;;;;;;21.45;60.86;101237.34;7357666;19;19925;-57
2023/06/24 04:43:25;;;;;;;;;;;;;;;21.48;61.11;101247.78;7355953;19;19919;-57
2023/06/24 04:45:50;;;;;;;;;;;;;;;21.49;60.93;101254.81;7350228;19;19918;-58
2023/06/24 04:48:16;;;;;;;;;;;;;;;21.49;60.86;101246.84;7354555;19;19922;-58
2023/06/24 04:50:41;;;;;;;;;;;;;;;21.53;61.18;101259.94;7351840;19;19915;-58
2023/06/24 04:53:06;;;;;;;;;;;;;;;21.53;61.41;101247.50;7354861;19;19922;-58
2023/06/24 04:55:31;;;;;;;;;;;;;;;21.54;61.64;101243.91;7352722;19;20209;-58
2023/06/24 04:57:57;;;;;;;;;;;;;;;21.56;61.32;101249.13;7355227;19;19936;-58
2023/06/24 05:00:24;;;;;;;;;;;;;;;21.56;61.53;101254.47;7351557;19;19923;-58
2023/06/24 05:02:49;;;;;;;;;;;;;;;21.59;61.30;101254.25;7356028;19;19923;-58
2023/06/24 05:05:14;;;;;;;;;;;;;;;21.61;61.43;101263.00;7352143;19;19922;-58
2023/06/24 05:07:40;;;;;;;;;;;;;;;21.62;61.37;101259.41;7357172;19;19935;-58
2023/06/24 05:10:05;;;;;;;;;;;;;;;21.63;61.61;101269.06;7353789;19;19967;-58
2023/06/24 05:12:30;;;;;;;;;;;;;;;21.65;61.69;101264.53;7357992;19;19930;-58
2023/06/24 05:14:56;;;;;;;;;;;;;;;21.66;61.68;101261.78;7355184;19;20387;-58
2023/06/24 05:17:21;;;;;;;;;;;;;;;21.69;61.68;101260.72;7356784;19;19932;-58
2023/06/24 05:19:46;;;;;;;;;;;;;;;21.70;61.14;101262.47;7355208;19;19930;-58
2023/06/24 05:22:11;;;;;;;;;;;;;;;21.69;61.31;101258.91;7353366;19;19915;-58
2023/06/24 05:24:37;;;;;;;;;;;;;;;21.69;61.78;101266.88;7350225;19;19927;-58
2023/06/24 05:27:06;;;;;;;;;;;;;;;21.68;61.36;101262.53;7356516;19;19953;-58
2023/06/24 05:29:31;;;;;;;;;;;;;;;21.69;61.34;101266.03;7353957;19;19915;-58
2023/06/24 05:31:57;;;;;;;;;;;;;;;21.69;61.51;101260.72;7357216;19;20267;-58
2023/06/24 05:34:22;;;;;;;;;;;;;;;21.70;61.37;101273.94;7350147;19;19942;-58
2023/06/24 05:36:47;;;;;;;;;;;;;;;21.70;61.89;101263.31;7352742;19;19927;-58
2023/06/24 05:39:13;;;;;;;;;;;;;;;21.74;61.77;101269.28;7349749;19;19923;-58
2023/06/24 05:41:38;;;;;;;;;;;;;;;21.77;61.95;101266.44;7350013;19;19919;-58
2023/06/24 05:44:05;;;;;;;;;;;;;;;21.83;62.16;101263.41;7251601;19;20772;-58
2023/06/24 05:46:30;;;;;;;;;;;;;;;21.88;61.93;101263.97;7323534;19;19922;-58
2023/06/24 05:48:55;;;;;;;;;;;;;;;21.95;62.05;101268.00;7353661;19;19946;-58
2023/06/24 05:51:21;;;;;;;;;;;;;;;22.03;61.74;101264.84;7359701;19;19930;-58
2023/06/24 05:53:46;;;;;;;;;;;;;;;22.10;61.73;101260.00;7355964;19;19935;-58
2023/06/24 05:56:11;;;;;;;;;;;;;;;22.16;61.61;101267.66;7361008;19;20360;-58
2023/06/24 05:58:37;;;;;;;;;;;;;;;22.22;61.90;101259.28;7353374;19;19923;-58
2023/06/24 06:01:02;;;;;;;;;;;;;;;22.28;61.59;101264.22;7360108;19;19946;-58
2023/06/24 06:03:27;;;;;;;;;;;;;;;22.32;61.69;101268.41;7359310;19;20002;-58
2023/06/24 06:05:53;;;;;;;;;;;;;;;22.35;61.28;101260.19;7357564;19;19929;-58
2023/06/24 06:08:18;;;;;;;;;;;;;;;22.40;61.59;101254.59;7355547;19;19926;-58
2023/06/24 06:10:43;;;;;;;;;;;;;;;22.44;61.67;101258.78;7356473;19;20027;-58
2023/06/24 06:13:08;;;;;;;;;;;;;;;22.49;61.51;101257.53;7356977;19;19929;-59
2023/06/24 06:15:34;;;;;;;;;;;;;;;22.53;61.60;101256.38;7359498;19;20347;-58
2023/06/24 06:17:59;;;;;;;;;;;;;;;22.57;61.16;101253.53;7356806;19;19948;-58
2023/06/24 06:20:24;;;;;;;;;;;;;;;22.61;61.06;101255.03;7357847;19;20468;-57
2023/06/24 06:22:51;;;;;;;;;;;;;;;22.64;61.72;101253.03;7353629;19;19974;-58
2023/06/24 06:25:16;;;;;;;;;;;;;;;22.69;61.13;101252.75;7354037;19;19926;-58
2023/06/24 06:27:41;;;;;;;;;;;;;;;22.72;61.01;101248.06;7357075;19;20623;-58
2023/06/24 06:30:07;;;;;;;;;;;;;;;22.74;60.95;101250.63;7353529;19;19930;-58
2023/06/24 06:32:32;;;;;;;;;;;;;;;22.78;60.76;101252.16;7361241;19;20622;-58
2023/06/24 06:34:57;;;;;;;;;;;;;;;22.79;61.02;101273.34;7357426;19;20334;-59
2023/06/24 06:37:22;;;;;;;;;;;;;;;22.84;61.13;101258.88;7358243;19;19945;-58
2023/06/24 06:39:48;;;;;;;;;;;;;;;22.85;60.59;101253.44;7356421;19;19931;-58
2023/06/24 06:42:14;;;;;;;;;;;;;;;22.86;60.60;101257.84;7358782;19;19919;-58
2023/06/24 06:44:39;;;;;;;;;;;;;;;22.89;60.51;101252.31;7356789;19;19923;-58
2023/06/24 06:47:05;;;;;;;;;;;;;;;22.87;60.60;101261.34;7357809;19;19949;-58
2023/06/24 06:49:30;;;;;;;;;;;;;;;22.86;60.28;101255.19;7357816;19;19923;-57
2023/06/24 06:51:55;;;;;;;;;;;;;;;22.84;59.99;101257.06;7345756;19;19978;-58
2023/06/24 06:54:20;;;;;;;;;;;;;;;22.81;59.98;101249.28;7357854;19;19956;-59
2023/06/24 06:56:46;;;;;;;;;;;;;;;22.80;60.12;101251.06;7354616;19;20171;-58
2023/06/24 06:59:11;;;;;;;;;;;;;;;22.79;60.40;101249.38;7355175;19;19944;-58
2023/06/24 07:01:36;;;;;;;;;;;;;;;22.78;60.33;101263.66;7358364;19;20652;-58
2023/06/24 07:04:02;;;;;;;;;;;;;;;22.78;60.02;101260.13;7350772;19;19940;-57
2023/06/24 07:06:27;;;;;;;;;;;;;;;22.78;59.89;101263.66;7358671;19;20022;-57
2023/06/24 07:08:52;;;;;;;;;;;;;;;22.78;59.94;101262.78;7355215;19;19922;-58
2023/06/24 07:11:18;;;;;;;;;;;;;;;22.78;60.30;101268.13;7353748;19;19919;-57
2023/06/24 07:13:44;;;;;;;;;;;;;;;22.78;60.16;101265.47;7355546;19;19933;-58
2023/06/24 07:16:10;;;;;;;;;;;;;;;22.80;60.38;101271.53;7354573;19;19915;-58
2023/06/24 07:18:35;;;;;;;;;;;;;;;22.80;60.39;101272.38;7354984;19;20300;-58
2023/06/24 07:21:01;;;;;;;;;;;;;;;22.82;59.96;101279.44;7354848;19;19926;-58
2023/06/24 07:23:26;;;;;;;;;;;;;;;22.84;60.10;101281.03;7360358;19;19926;-58
2023/06/24 07:25:51;;;;;;;;;;;;;;;22.86;60.08;101278.25;7357754;19;19915;-58
2023/06/24 07:28:16;;;;;;;;;;;;;;;22.89;59.93;101286.94;7355804;19;19919;-58
2023/06/24 07:30:42;;;;;;;;;;;;;;;22.64;60.21;101238.88;7356106;19;19931;-58
2023/06/24 07:33:08;;;;;;;;;;;;;;;22.95;60.10;101297.19;7356124;19;20010;-58
2023/06/24 07:35:33;;;;;;;;;;;;;;;22.98;59.74;101297.00;7359234;19;19923;-58
2023/06/24 07:37:58;;;;;;;;;;;;;;;23.01;59.70;101302.16;7356040;19;19919;-58
2023/06/24 07:40:24;;;;;;;;;;;;;;;23.05;60.07;101302.78;7352184;19;19931;-58
2023/06/24 07:42:49;;;;;;;;;;;;;;;22.81;59.76;101267.94;7354069;19;19923;-58
2023/06/24 07:45:14;;;;;;;;;;;;;;;23.13;59.54;101315.63;7356391;19;19998;-57
2023/06/24 07:47:39;;;;;;;;;;;;;;;23.16;59.66;101318.91;7356066;19;20247;-58
2023/06/24 07:50:06;;;;;;;;;;;;;;;23.19;59.32;101326.72;7354180;19;19932;-58
2023/06/24 07:52:31;;;;;;;;;;;;;;;23.25;59.29;101320.13;7358211;19;19914;-58
2023/06/24 07:54:56;;;;;;;;;;;;;;;23.28;59.61;101326.13;7354805;19;19925;-58
2023/06/24 07:57:22;;;;;;;;;;;;;;;23.36;59.91;101324.75;7353682;19;19932;-57
2023/06/24 07:59:47;;;;;;;;;;;;;;;23.44;59.98;101325.94;7354984;19;19922;-58
2023/06/24 08:02:12;;;;;;;;;;;;;;;23.49;59.36;101339.81;7356439;19;19911;-57
2023/06/24 08:04:37;;;;;;;;;;;;;;;23.61;59.79;101342.63;7352884;19;19926;-58
2023/06/24 08:07:03;;;;;;;;;;;;;;;23.70;59.75;101336.72;7356455;19;19943;-58
2023/06/24 08:09:28;;;;;;;;;;;;;;;23.78;59.42;101323.72;7347679;19;19929;-58
2023/06/24 08:11:54;;;;;;;;;;;;;;;23.88;59.60;101345.28;7356348;19;19932;-58
2023/06/24 08:14:19;;;;;;;;;;;;;;;23.95;59.20;101339.41;7352590;19;19934;-60
2023/06/24 08:16:44;;;;;;;;;;;;;;;24.03;58.95;101345.09;7355045;19;19926;-59
2023/06/24 08:19:10;;;;;;;;;;;;;;;24.10;58.79;101344.66;7357952;19;20074;-58
2023/06/24 08:21:35;;;;;;;;;;;;;;;24.16;58.79;101339.72;7354889;19;19922;-58
2023/06/24 08:24:00;;;;;;;;;;;;;;;24.22;58.53;101344.63;7330767;19;20777;-59
2023/06/24 08:26:25;;;;;;;;;;;;;;;24.30;58.61;101338.78;7354167;19;19922;-58
2023/06/24 08:28:51;;;;;;;;;;;;;;;24.37;58.13;101334.72;7355202;19;19930;-58
2023/06/24 08:31:16;;;;;;;;;;;;;;;24.44;57.99;101343.19;7357276;19;20359;-58
2023/06/24 08:33:43;;;;;;;;;;;;;;;24.50;58.08;101329.41;7352166;19;19926;-57
2023/06/24 08:36:08;;;;;;;;;;;;;;;24.58;57.54;101338.56;7354959;19;19926;-59
2023/06/24 08:38:34;;;;;;;;;;;;;;;24.65;57.31;101338.13;7354125;19;20442;-58
2023/06/24 08:40:59;;;;;;;;;;;;;;;24.72;57.69;101342.06;7354037;19;19919;-59
2023/06/24 08:43:24;;;;;;;;;;;;;;;24.76;57.62;101340.88;7356001;19;19915;-59
2023/06/24 08:45:49;;;;;;;;;;;;;;;24.81;57.21;101342.25;7352840;19;20006;-59
2023/06/24 08:48:15;;;;;;;;;;;;;;;24.87;57.18;101340.94;7356525;19;19970;-58
2023/06/24 08:50:43;;;;;;;;;;;;;;;24.92;56.87;101333.44;7354160;19;19930;-59
2023/06/24 08:53:09;;;;;;;;;;;;;;;24.95;56.43;101337.72;7357923;19;19965;-58
2023/06/24 08:55:39;;;;;;;;;;;;;;;24.96;56.54;101340.28;7349721;19;20328;-58
2023/06/24 08:58:05;;;;;;;;;;;;;;;24.98;56.21;101338.34;7351890;19;19933;-58
2023/06/24 09:00:30;;;;;;;;;;;;;;;25.01;56.49;101342.63;7346459;19;20335;-58
2023/06/24 09:02:56;;;;;;;;;;;;;;;25.05;56.33;101344.97;7355712;19;19929;-59
2023/06/24 09:05:21;;;;;;;;;;;;;;;25.08;56.27;101350.09;7350795;19;19926;-58
2023/06/24 09:07:47;;;;;;;;;;;;;;;25.17;55.43;101345.03;7355879;19;19938;-57
2023/06/24 09:10:29;;;;;;;;;;;;;;;25.21;55.72;101341.19;7353460;19;20389;-58
2023/06/24 09:12:54;;;;;;;;;;;;;;;25.25;55.09;101329.31;7351725;19;19922;-58
2023/06/24 09:15:20;;;;;;;;;;;;;;;25.29;55.22;101336.09;7351860;19;19918;-58
2023/06/24 09:17:48;;;;;;;;;;;;;;;25.31;55.20;101335.03;7353434;19;19915;-58
2023/06/24 09:20:13;;;;;;;;;;;;;;;25.33;55.32;101326.91;7350077;19;20295;-58
2023/06/24 09:22:41;;;;;;;;;;;;;;;25.37;54.67;101328.38;7355502;19;19922;-58
2023/06/24 09:25:07;;;;;;;;;;;;;;;25.41;55.00;101327.19;7349775;19;19936;-58
2023/06/24 09:27:33;;;;;;;;;;;;;;;25.47;55.42;101329.38;7346588;19;19953;-57
2023/06/24 09:29:58;;;;;;;;;;;;;;;25.58;55.57;101321.41;7352443;19;19923;-59
2023/06/24 09:32:26;;;;;;;;;;;;;;;25.70;55.12;101327.66;7349895;19;19919;-58
2023/06/24 09:34:51;;;;;;;;;;;;;;;25.81;54.90;101337.56;7349127;19;19933;-58
2023/06/24 09:37:23;;;;;;;;;;;;;;;25.94;54.48;101332.09;7350112;19;20606;-58
2023/06/24 09:39:49;;;;;;;;;;;;;;;26.04;54.68;101328.59;7354140;19;19930;-59
2023/06/24 09:42:14;;;;;;;;;;;;;;;26.23;54.00;101327.16;7356106;19;19919;-59
2023/06/24 09:44:40;;;;;;;;;;;;;;;26.40;53.79;101324.00;7344782;19;19923;-58
2023/06/24 09:47:05;;;;;;;;;;;;;;;26.59;53.23;101324.25;7350484;19;19922;-58
2023/06/24 09:49:31;;;;;;;;;;;;;;;26.77;53.57;101326.44;7352654;19;19919;-58
2023/06/24 09:52:00;;;;;;;;;;;;;;;27.00;53.75;101328.09;7347699;19;20024;-58
2023/06/24 09:54:27;;;;;;;;;;;;;;;27.21;52.48;101335.38;7352197;19;19925;-58
2023/06/24 09:56:53;;;;;;;;;;;;;;;27.40;50.96;101330.19;7347283;19;20264;-58
2023/06/24 09:59:19;;;;;;;;;;;;;;;27.56;50.30;101330.59;7341894;19;19921;-58
2023/06/24 10:01:46;;;;;;;;;;;;;;;27.72;49.59;101329.31;7346218;19;21086;-58
2023/06/24 10:04:23;;;;;;;;;;;;;;;27.81;50.01;101318.66;7349017;19;19923;-61
2023/06/24 10:06:49;;;;;;;;;;;;;;;27.92;50.08;101328.47;7324438;19;20770;-62
2023/06/24 10:09:16;;;;;;;;;;;;;;;28.00;49.54;101336.72;7341290;19;19933;-61
2023/06/24 10:11:42;;;;;;;;;;;;;;;28.05;48.48;101331.81;7349556;19;20361;-60
2023/06/24 10:14:07;;;;;;;;;;;;;;;28.06;48.22;101336.19;7348739;19;19927;-61
2023/06/24 10:16:33;;;;;;;;;;;;;;;28.13;48.69;101333.81;7347832;19;19910;-61
2023/06/24 10:19:02;;;;;;;;;;;;;;;28.26;48.93;101334.47;7344490;19;19914;-60
2023/06/24 10:21:49;;;;;;;;;;;;;;;28.42;48.86;101328.63;7347956;19;19939;-62
2023/06/24 10:24:28;;;;;;;;;;;;;;;28.60;48.58;101332.38;7347947;19;19930;-61
2023/06/24 10:26:53;;;;;;;;;;;;;;;28.76;48.41;101328.31;7345115;19;19922;-61
2023/06/24 10:29:29;;;;;;;;;;;;;;;28.97;47.87;101333.63;7346249;19;20407;-60
2023/06/24 10:31:55;;;;;;;;;;;;;;;29.11;47.80;101325.16;7349434;19;19919;-62
2023/06/24 10:34:23;;;;;;;;;;;;;;;29.05;47.93;101282.69;7349762;19;20380;-61
2023/06/24 10:36:57;;;;;;;;;;;;;;;29.44;47.49;101323.88;7352114;19;20021;-61
2023/06/24 10:39:38;;;;;;;;;;;;;;;29.64;47.69;101314.84;7351235;19;19918;-60
2023/06/24 10:42:21;;;;;;;;;;;;;;;29.91;48.25;101318.63;7346398;19;19922;-61
2023/06/24 10:44:47;;;;;;;;;;;;;;;30.23;47.84;101324.50;7354055;19;20418;-61
2023/06/24 10:47:13;;;;;;;;;;;;;;;30.50;47.12;101309.34;7355160;19;19922;-60
2023/06/24 10:49:38;;;;;;;;;;;;;;;30.69;46.21;101309.25;7356423;19;19954;-61
2023/06/24 10:52:03;;;;;;;;;;;;;;;30.89;45.32;101317.25;7350670;19;19923;-61
2023/06/24 10:54:29;;;;;;;;;;;;;;;31.00;44.92;101306.25;7346728;19;19946;-60
2023/06/24 10:56:55;;;;;;;;;;;;;;;31.16;45.38;101316.34;7353785;19;19914;-61
2023/06/24 10:59:20;;;;;;;;;;;;;;;31.38;45.24;101315.91;7355214;19;20561;-62
2023/06/24 11:01:55;;;;;;;;;;;;;;;31.61;44.03;101316.25;7354214;19;20642;-60
2023/06/24 11:04:20;;;;;;;;;;;;;;;31.82;43.74;101307.00;7351951;19;19919;-61
2023/06/24 11:07:01;;;;;;;;;;;;;;;31.90;43.24;101315.16;7356266;19;19929;-60
2023/06/24 11:09:27;;;;;;;;;;;;;;;32.00;43.84;101322.16;7353562;19;19918;-61
2023/06/24 11:11:52;;;;;;;;;;;;;;;32.20;44.05;101314.66;7352731;19;19925;-61
2023/06/24 11:14:19;;;;;;;;;;;;;;;32.45;44.04;101304.00;7354483;19;20558;-62
2023/06/24 11:16:45;;;;;;;;;;;;;;;32.69;44.65;101285.13;7355719;19;19946;-61
2023/06/24 11:19:10;;;;;;;;;;;;;;;33.07;43.97;101304.53;7355617;19;19926;-61
2023/06/24 11:21:35;;;;;;;;;;;;;;;33.39;43.88;101302.84;7352127;19;19926;-61
2023/06/24 11:24:02;;;;;;;;;;;;;;;33.67;42.77;101301.53;7354609;19;19925;-61
2023/06/24 11:26:27;;;;;;;;;;;;;;;33.84;42.51;101296.91;7353103;19;19923;-64
2023/06/24 11:28:53;;;;;;;;;;;;;;;33.97;42.62;101301.84;7354929;19;21074;-63
2023/06/24 11:31:18;;;;;;;;;;;;;;;34.07;42.17;101310.63;7349093;19;19982;-63
2023/06/24 11:33:48;;;;;;;;;;;;;;;34.11;41.56;101294.84;7353646;19;19919;-62
2023/06/24 11:36:16;;;;;;;;;;;;;;;34.10;41.01;101304.84;7353371;19;19949;-63
2023/06/24 11:38:41;;;;;;;;;;;;;;;34.07;40.55;101302.50;7355079;19;20026;-61
2023/06/24 11:41:07;;;;;;;;;;;;;;;33.99;39.58;101291.66;7346731;19;19930;-63
2023/06/24 11:43:33;;;;;;;;;;;;;;;33.90;39.83;101296.22;7353909;19;19938;-63
2023/06/24 11:45:58;;;;;;;;;;;;;;;33.81;39.91;101298.13;7353485;19;20651;-62
2023/06/24 11:48:27;;;;;;;;;;;;;;;33.75;39.86;101301.50;7350235;19;19930;-63
2023/06/24 11:50:55;;;;;;;;;;;;;;;33.71;39.53;101291.16;7352940;19;20011;-62
2023/06/24 11:53:30;;;;;;;;;;;;;;;33.66;39.85;101289.00;7347064;19;19942;-64
2023/06/24 11:55:56;;;;;;;;;;;;;;;33.68;39.78;101280.69;7352771;19;19946;-63
2023/06/24 11:58:21;;;;;;;;;;;;;;;33.71;38.90;101286.63;7351432;19;21226;-64
2023/06/24 12:00:48;;;;;;;;;;;;;;;33.66;39.21;101270.03;7344741;19;19911;-66
2023/06/24 12:03:14;;;;;;;;;;;;;;;33.60;38.70;101291.53;7342934;19;19923;-64
2023/06/24 12:05:44;;;;;;;;;;;;;;;33.60;38.79;101284.25;7354594;19;19923;-65
2023/06/24 12:08:11;;;;;;;;;;;;;;;33.68;38.74;101289.66;7353263;19;19922;-65
2023/06/24 12:10:37;;;;;;;;;;;;;;;33.77;39.17;101277.81;7355013;19;19929;-65
2023/06/24 12:13:03;;;;;;;;;;;;;;;33.94;39.27;101291.34;7351940;19;19943;-66
2023/06/24 12:15:28;;;;;;;;;;;;;;;34.19;39.85;101284.81;7352023;19;20653;-64
2023/06/24 12:17:54;;;;;;;;;;;;;;;34.55;39.54;101278.94;7352292;19;19915;-65
2023/06/24 12:20:19;;;;;;;;;;;;;;;34.90;39.33;101282.13;7355676;19;20006;-63
2023/06/24 12:22:45;;;;;;;;;;;;;;;35.25;40.08;101284.25;7353838;19;19986;-63
2023/06/24 12:25:10;;;;;;;;;;;;;;;35.65;39.32;101286.81;7351558;19;19919;-64
2023/06/24 12:27:36;;;;;;;;;;;;;;;35.82;38.24;101251.13;7353210;19;19919;-63
2023/06/24 12:30:01;;;;;;;;;;;;;;;36.36;36.69;101302.53;7355111;19;19919;-63
2023/06/24 12:32:27;;;;;;;;;;;;;;;36.62;36.32;101276.69;7329622;19;19919;-64